Time;durP1;ratioP1;P1;durP2;ratioP2;P2;SDS_P1;SDS_P2;PMS_P1;PMS_P2;Temp;Humidity;BMP_temperature;BMP_pressure;BME280_temperature;BME280_humidity;BME280_pressure;Samples;Min_cycle;Max_cycle;Signal;HPM_P1;HPM_P2
2021/12/24 00:02:59;;;;;;;1999.90;999.90;;;;;;;8.60;100.00;100191.22;10471326;28;20269;-82
2021/12/24 00:08:01;;;;;;;690.27;625.20;;;;;;;9.02;100.00;100227.09;10475188;28;20672;-82
2021/12/24 00:13:08;;;;;;;1670.43;857.47;;;;;;;9.26;100.00;100259.03;10477351;28;20214;-83
2021/12/24 00:18:20;;;;;;;1999.90;999.90;;;;;;;9.32;100.00;100261.25;10474772;28;20247;-83
2021/12/24 00:39:24;;;;;;;1525.33;612.33;;;;;;;9.19;100.00;100188.50;10477034;28;20231;-84
2021/12/24 00:44:27;;;;;;;1999.90;999.90;;;;;;;9.08;100.00;100175.16;10475619;28;20217;-82
2021/12/24 00:49:28;;;;;;;1384.97;758.13;;;;;;;9.71;100.00;100251.13;10482176;28;20218;-84
2021/12/24 00:59:51;;;;;;;1999.90;999.90;;;;;;;9.46;100.00;100198.03;10478575;28;20218;-83
2021/12/24 01:04:52;;;;;;;653.63;607.10;;;;;;;9.52;100.00;100201.06;10478011;28;20309;-82
2021/12/24 01:09:54;;;;;;;1999.90;999.90;;;;;;;9.93;100.00;100271.66;10487835;28;20214;-83
2021/12/24 01:14:57;;;;;;;1999.90;999.90;;;;;;;9.98;100.00;100257.94;10488387;28;20213;-83
2021/12/24 01:20:05;;;;;;;1781.60;758.07;;;;;;;9.38;100.00;100163.97;10490042;28;20239;-84
2021/12/24 01:25:14;;;;;;;1999.90;890.60;;;;;;;10.06;100.00;100276.03;10489266;28;20214;-83
2021/12/24 01:41:04;;;;;;;1999.90;929.67;;;;;;;9.79;100.00;100197.19;10461676;28;20227;-84
2021/12/24 01:46:07;;;;;;;1999.90;836.50;;;;;;;10.15;100.00;100261.94;10488034;28;20209;-83
2021/12/24 01:51:09;;;;;;;1967.67;886.60;;;;;;;10.15;100.00;100251.25;10486160;28;20253;-83
2021/12/24 01:56:10;;;;;;;1999.90;999.90;;;;;;;10.19;100.00;100255.41;10487098;28;20212;-83
2021/12/24 02:01:14;;;;;;;1999.90;822.97;;;;;;;10.18;100.00;100263.53;10487835;28;20234;-86
2021/12/24 02:06:15;;;;;;;1999.90;847.27;;;;;;;10.22;100.00;100265.81;10494752;28;20182;-83
2021/12/24 02:11:17;;;;;;;1999.90;952.10;;;;;;;9.97;100.00;100236.75;10492333;28;20680;-84
2021/12/24 02:16:36;;;;;;;1999.90;999.90;;;;;;;9.75;100.00;100187.75;10488390;28;20698;-83
2021/12/24 02:32:21;;;;;;;1999.90;921.80;;;;;;;10.24;100.00;100282.56;10486063;28;20590;-83
2021/12/24 02:37:24;;;;;;;1999.90;875.03;;;;;;;9.81;100.00;100200.56;10493280;28;20317;-83
2021/12/24 02:42:26;;;;;;;1999.90;962.30;;;;;;;10.24;100.00;100271.88;10490623;28;20236;-83
2021/12/24 02:47:42;;;;;;;1999.90;890.13;;;;;;;9.61;100.00;100172.84;10483037;28;20218;-84
2021/12/24 02:58:04;;;;;;;1999.90;999.90;;;;;;;9.88;100.00;100209.78;10446462;28;20215;-84
2021/12/24 03:03:05;;;;;;;1999.90;959.33;;;;;;;10.00;100.00;100224.00;10485218;28;20227;-83
2021/12/24 03:08:08;;;;;;;1999.90;712.70;;;;;;;9.22;100.00;100120.81;10488361;28;20203;-83
2021/12/24 03:13:10;;;;;;;1999.90;892.27;;;;;;;10.01;100.00;100241.69;10491129;28;20264;-83
2021/12/24 03:18:12;;;;;;;1999.90;806.50;;;;;;;10.00;100.00;100232.00;10488873;28;20222;-84
2021/12/24 03:23:34;;;;;;;1999.90;850.27;;;;;;;10.20;100.00;100269.59;10488593;28;20290;-84
2021/12/24 03:28:36;;;;;;;1999.90;878.83;;;;;;;9.98;100.00;100246.41;10491081;28;20233;-83
2021/12/24 03:33:38;;;;;;;1999.90;999.90;;;;;;;9.81;100.00;100197.91;10486739;28;20257;-83
2021/12/24 03:38:42;;;;;;;1999.90;999.90;;;;;;;10.20;100.00;100267.75;10487361;28;20215;-83
2021/12/24 03:43:44;;;;;;;1999.90;999.90;;;;;;;9.45;100.00;100143.00;10485627;28;20231;-83
2021/12/24 03:48:50;;;;;;;1999.90;999.90;;;;;;;10.20;100.00;100267.75;10484638;28;20343;-84
2021/12/24 03:59:13;;;;;;;1999.90;999.90;;;;;;;9.92;100.00;100203.25;10481812;28;20251;-84
2021/12/24 04:04:14;;;;;;;1999.90;999.90;;;;;;;10.16;100.00;100260.13;10484248;28;20222;-83
2021/12/24 04:09:18;;;;;;;1999.90;999.90;;;;;;;9.84;100.00;100213.69;10485753;28;20261;-83
2021/12/24 04:14:19;;;;;;;1999.90;999.90;;;;;;;9.78;99.54;100218.66;10488464;28;20207;-84
2021/12/24 04:24:50;;;;;;;1999.90;999.90;;;;;;;10.14;99.47;100262.94;10488545;28;20229;-84
2021/12/24 04:24:59;;;;;;;1999.90;999.90;;;;;;;10.16;99.14;100268.16;10487116;28;20261;-84
2021/12/24 04:30:07;;;;;;;1999.90;999.90;;;;;;;10.13;99.37;100254.06;10487020;28;20188;-84
2021/12/24 04:35:19;;;;;;;1999.90;999.90;;;;;;;9.43;98.56;100166.28;10480172;28;20346;-84
2021/12/24 04:51:12;;;;;;;1999.90;999.90;;;;;;;9.04;98.53;100088.47;10478256;28;20231;-85
2021/12/24 05:01:43;;;;;;;1999.90;999.90;;;;;;;10.06;98.12;100266.19;10488877;28;20254;-83
2021/12/24 05:06:52;;;;;;;1999.90;999.90;;;;;;;10.06;98.55;100276.03;10491219;28;20206;-86
2021/12/24 05:11:55;;;;;;;1999.90;999.90;;;;;;;10.03;97.75;100265.59;10500667;28;20207;-84
2021/12/24 05:17:16;;;;;;;1999.90;999.90;;;;;;;9.90;97.91;100242.53;10491245;28;20428;-84
2021/12/24 05:22:18;;;;;;;1999.90;999.90;;;;;;;9.93;97.32;100255.66;10487375;28;20219;-83
2021/12/24 05:27:21;;;;;;;1999.90;999.90;;;;;;;9.99;97.78;100266.81;10481544;28;20263;-84
2021/12/24 05:32:23;;;;;;;1999.90;999.90;;;;;;;9.99;97.23;100270.31;10484820;28;20226;-84
2021/12/24 05:37:24;;;;;;;1999.90;999.90;;;;;;;9.79;97.28;100253.19;10485932;28;20293;-83
2021/12/24 05:42:31;;;;;;;1999.90;999.90;;;;;;;9.69;97.45;100234.41;10477824;28;20236;-84
2021/12/24 05:47:33;;;;;;;1999.90;999.90;;;;;;;9.55;97.68;100226.66;10484938;28;20209;-83
2021/12/24 05:52:35;;;;;;;1999.90;999.90;;;;;;;9.92;97.17;100283.28;10479062;28;20214;-84
2021/12/24 05:57:38;;;;;;;1999.90;999.90;;;;;;;9.67;96.94;100243.50;10483122;28;20219;-84
2021/12/24 06:02:40;;;;;;;1999.90;999.90;;;;;;;9.77;96.94;100265.81;10488595;28;20234;-84
2021/12/24 06:07:41;;;;;;;1999.90;999.90;;;;;;;9.58;96.62;100230.88;10489313;28;20219;-83
2021/12/24 06:12:45;;;;;;;1999.90;999.90;;;;;;;9.05;96.56;100144.28;10485111;28;20218;-83
2021/12/24 06:17:47;;;;;;;1999.90;999.90;;;;;;;9.61;97.14;100260.81;10484311;28;20211;-84
2021/12/24 06:22:49;;;;;;;1999.90;999.90;;;;;;;9.20;97.06;100184.03;10486248;28;20238;-83
2021/12/24 06:27:52;;;;;;;1999.90;999.90;;;;;;;9.33;96.60;100214.94;10486807;28;20203;-84
2021/12/24 06:32:54;;;;;;;1999.90;999.90;;;;;;;9.68;97.18;100269.19;10477464;28;20223;-84
2021/12/24 06:37:57;;;;;;;1999.90;999.90;;;;;;;9.48;96.06;100273.41;10485840;28;20629;-84
2021/12/24 06:43:00;;;;;;;1999.90;999.90;;;;;;;9.66;96.97;100280.00;10484075;28;20226;-83
2021/12/24 06:48:03;;;;;;;1999.90;999.90;;;;;;;9.59;97.00;100262.75;10487262;28;20260;-83
2021/12/24 06:53:05;;;;;;;1999.90;999.90;;;;;;;9.43;96.46;100228.41;10486162;28;20207;-84
2021/12/24 06:58:09;;;;;;;1999.90;999.90;;;;;;;8.55;96.65;100101.03;10485052;28;20198;-84
2021/12/24 07:03:10;;;;;;;1999.90;999.90;;;;;;;8.75;96.35;100139.47;10484768;28;20249;-84
2021/12/24 07:08:12;;;;;;;1999.90;999.90;;;;;;;8.75;96.18;100135.00;10489217;28;20207;-84
2021/12/24 07:13:15;;;;;;;1999.90;999.90;;;;;;;9.58;96.07;100263.72;10485876;28;20202;-83
2021/12/24 07:18:17;;;;;;;1999.90;999.90;;;;;;;8.82;95.93;100153.19;10483850;28;21022;-84
2021/12/24 07:23:19;;;;;;;1999.90;999.90;;;;;;;8.75;96.32;100139.47;10481280;28;20260;-83
2021/12/24 07:28:22;;;;;;;1999.90;999.90;;;;;;;8.66;96.20;100146.34;10472782;28;20219;-84
2021/12/24 07:33:23;;;;;;;1999.90;999.90;;;;;;;8.98;96.51;100185.66;10484778;28;20699;-83
2021/12/24 07:38:25;;;;;;;1999.90;999.90;;;;;;;9.47;96.02;100277.00;10485846;28;20223;-83
2021/12/24 07:43:28;;;;;;;1999.90;999.90;;;;;;;9.30;96.80;100246.31;10482419;28;20246;-83
2021/12/24 07:48:32;;;;;;;1999.90;999.90;;;;;;;9.16;96.45;100218.06;10482314;28;20241;-82
2021/12/24 07:53:33;;;;;;;1999.90;999.90;;;;;;;9.18;96.92;100228.63;10485562;28;20210;-82
2021/12/24 07:58:37;;;;;;;1999.90;999.90;;;;;;;9.44;96.08;100278.13;10481334;28;20678;-83
2021/12/24 08:03:38;;;;;;;1999.90;999.90;;;;;;;9.43;96.65;100273.72;10475417;28;20250;-83
2021/12/24 08:08:40;;;;;;;1999.90;999.90;;;;;;;9.43;96.54;100276.41;10478991;28;21965;-83
2021/12/24 08:13:43;;;;;;;1999.90;999.90;;;;;;;8.56;96.47;100135.53;10476148;28;20203;-83
2021/12/24 08:18:45;;;;;;;1999.90;999.90;;;;;;;9.48;97.01;100284.91;10479404;28;20208;-83
2021/12/24 08:23:47;;;;;;;1999.90;999.90;;;;;;;9.47;96.76;100285.00;10477606;28;20218;-84
2021/12/24 08:28:50;;;;;;;1999.90;999.90;;;;;;;9.29;96.43;100244.63;10480708;28;20222;-83
2021/12/24 08:33:51;;;;;;;1999.90;999.90;;;;;;;9.49;97.52;100283.06;10477604;28;20242;-84
2021/12/24 08:38:55;;;;;;;1999.90;999.90;;;;;;;8.72;96.95;100175.19;10478342;28;20231;-84
2021/12/24 08:43:58;;;;;;;1999.90;999.90;;;;;;;9.49;96.88;100296.41;10477236;28;20220;-83
2021/12/24 08:48:59;;;;;;;1999.90;999.90;;;;;;;9.49;96.77;100272.41;10475307;28;21115;-82
2021/12/24 08:54:01;;;;;;;1999.90;999.90;;;;;;;9.49;96.74;100281.28;10478594;28;20215;-83
2021/12/24 08:59:05;;;;;;;1999.90;999.90;;;;;;;9.52;97.69;100288.19;10482193;28;20708;-83
2021/12/24 09:04:06;;;;;;;1999.90;999.90;;;;;;;9.50;97.00;100288.28;10475332;28;20315;-83
2021/12/24 09:09:10;;;;;;;1999.90;999.90;;;;;;;9.19;96.58;100232.97;10475006;28;20219;-83
2021/12/24 09:14:17;;;;;;;1999.90;999.90;;;;;;;9.52;97.28;100281.03;10477684;28;20662;-83
2021/12/24 09:19:23;;;;;;;1999.90;999.90;;;;;;;9.26;97.47;100236.88;10475666;28;20206;-83
2021/12/24 09:24:27;;;;;;;1999.90;999.90;;;;;;;8.48;97.24;100119.31;10479520;28;20229;-83
2021/12/24 09:29:30;;;;;;;1999.90;999.90;;;;;;;9.43;97.05;100271.06;10474989;28;20209;-83
2021/12/24 09:34:32;;;;;;;1999.90;999.90;;;;;;;9.08;97.22;100189.34;10487515;28;20230;-83
2021/12/24 09:39:34;;;;;;;1999.90;999.90;;;;;;;8.77;96.44;100156.19;10488757;28;20217;-83
2021/12/24 09:44:37;;;;;;;1999.90;999.90;;;;;;;9.55;96.64;100283.47;10487192;28;20853;-84
2021/12/24 09:49:39;;;;;;;1999.90;999.90;;;;;;;9.59;96.65;100273.44;10487578;28;20293;-82
2021/12/24 09:54:44;;;;;;;1999.90;999.90;;;;;;;8.30;96.86;100064.75;10486674;28;20683;-83
2021/12/24 09:59:47;;;;;;;1999.90;999.90;;;;;;;8.63;96.41;100121.78;10480820;28;20214;-83
2021/12/24 10:04:48;;;;;;;1999.90;999.90;;;;;;;9.12;96.44;100204.13;10483139;28;20230;-83
2021/12/24 10:09:50;;;;;;;1999.90;999.90;;;;;;;9.21;96.90;100215.91;10484695;28;20206;-83
2021/12/24 10:14:56;;;;;;;1999.90;999.90;;;;;;;9.07;96.23;100179.63;10489565;28;20218;-82
2021/12/24 10:20:00;;;;;;;1999.90;999.90;;;;;;;9.72;96.73;100292.00;10487004;28;20572;-83
2021/12/24 10:25:05;;;;;;;1999.90;999.90;;;;;;;9.55;96.83;100253.31;10481074;28;20237;-83
2021/12/24 10:30:19;;;;;;;1999.90;999.90;;;;;;;9.83;96.51;100272.47;10493028;28;20257;-83
2021/12/24 10:35:22;;;;;;;1999.90;999.90;;;;;;;8.05;96.31;99970.00;10491727;28;20595;-83
2021/12/24 10:40:30;;;;;;;1999.90;999.90;;;;;;;9.41;96.52;100185.03;10481011;28;20271;-82
2021/12/24 10:45:35;;;;;;;1999.90;999.90;;;;;;;9.76;96.48;100245.44;10480181;28;20226;-82
2021/12/24 10:50:48;;;;;;;1999.90;999.90;;;;;;;9.97;95.88;100272.25;10483460;28;20210;-82
2021/12/24 10:55:52;;;;;;;1999.90;999.90;;;;;;;9.31;95.78;100160.09;10492423;28;20210;-82
2021/12/24 11:00:58;;;;;;;1999.90;999.90;;;;;;;10.04;95.60;100257.47;10484677;28;20238;-82
2021/12/24 11:06:06;;;;;;;1999.90;999.90;;;;;;;9.12;95.76;100107.38;10493158;28;20210;-82
2021/12/24 11:11:11;;;;;;;1999.90;999.90;;;;;;;9.99;95.86;100240.97;10490808;28;20282;-81
2021/12/24 11:16:17;;;;;;;1999.90;999.90;;;;;;;10.09;95.05;100259.75;10484898;28;20203;-83
2021/12/24 11:21:20;;;;;;;1999.90;999.90;;;;;;;10.10;94.79;100267.66;10484284;28;20227;-82
2021/12/24 11:26:24;;;;;;;1999.90;999.90;;;;;;;10.09;94.64;100260.59;10487022;28;20217;-82
2021/12/24 11:31:29;;;;;;;1999.90;999.90;;;;;;;10.07;94.53;100254.53;10483206;28;20608;-82
2021/12/24 11:36:32;;;;;;;1999.90;999.90;;;;;;;10.09;94.61;100267.75;10483000;28;20884;-81
2021/12/24 11:41:34;;;;;;;1999.90;999.90;;;;;;;9.91;94.51;100230.06;10475162;28;20242;-82
2021/12/24 11:46:39;;;;;;;1999.90;999.90;;;;;;;10.13;94.60;100264.75;10477141;28;20364;-82
2021/12/24 11:51:41;;;;;;;1999.90;999.90;;;;;;;9.16;94.29;100095.50;10480651;28;20259;-82
2021/12/24 11:56:44;;;;;;;1977.53;797.50;;;;;;;9.81;94.46;100203.25;10476973;28;20259;-83
2021/12/24 12:01:47;;;;;;;1786.63;725.20;;;;;;;9.11;94.36;100079.03;10483841;28;20225;-83
2021/12/24 12:06:51;;;;;;;1524.30;640.33;;;;;;;10.22;94.49;100254.31;10483526;28;20210;-83
2021/12/24 12:12:02;;;;;;;655.93;442.13;;;;;;;10.20;94.13;100262.44;10484732;28;20652;-82
2021/12/24 12:17:06;;;;;;;1999.90;813.80;;;;;;;10.22;94.86;100256.97;10488366;28;20259;-83
2021/12/24 12:22:15;;;;;;;1472.77;692.17;;;;;;;10.23;94.62;100261.34;10478947;28;20223;-83
2021/12/24 12:27:18;;;;;;;859.63;543.07;;;;;;;10.24;95.31;100255.88;10487764;28;20258;-83
2021/12/24 12:32:41;;;;;;;1017.80;584.90;;;;;;;10.11;94.85;100217.78;10485494;28;20218;-82
2021/12/24 12:37:48;;;;;;;201.20;179.30;;;;;;;10.07;94.39;100227.84;10480567;28;20320;-82
2021/12/24 12:43:12;;;;;;;163.00;146.43;;;;;;;9.53;94.64;100117.47;10482301;28;20860;-84
2021/12/24 12:48:23;;;;;;;341.27;308.50;;;;;;;10.01;94.39;100199.00;10487893;28;20218;-84
2021/12/24 12:53:30;;;;;;;110.20;85.93;;;;;;;10.30;94.79;100230.50;10487443;28;20199;-84
2021/12/24 12:58:32;;;;;;;113.97;88.63;;;;;;;10.24;94.22;100223.84;10492841;28;20210;-84
2021/12/24 13:04:12;;;;;;;91.63;56.97;;;;;;;10.24;94.22;100207.81;10484976;28;20231;-84
2021/12/24 13:09:16;;;;;;;91.30;59.17;;;;;;;10.39;94.13;100231.63;10490283;28;20215;-83
2021/12/24 13:14:20;;;;;;;87.67;56.40;;;;;;;10.03;93.70;100175.72;10494723;28;20238;-83
2021/12/24 13:19:33;;;;;;;74.27;48.43;;;;;;;10.42;94.30;100236.72;10488588;28;20222;-83
2021/12/24 13:24:35;;;;;;;80.47;51.23;;;;;;;10.06;93.79;100178.16;10496699;28;20286;-84
2021/12/24 13:29:37;;;;;;;75.80;48.53;;;;;;;9.17;93.64;100019.94;10491826;28;20217;-84
2021/12/24 13:34:40;;;;;;;69.00;45.97;;;;;;;10.46;94.16;100223.00;10490047;28;20256;-84
2021/12/24 13:39:47;;;;;;;74.50;50.17;;;;;;;10.09;94.42;100156.53;10498887;28;20826;-84
2021/12/24 13:44:49;;;;;;;72.80;48.30;;;;;;;10.29;94.39;100181.63;10489753;28;20221;-84
2021/12/24 13:55:19;;;;;;;67.97;46.03;;;;;;;9.96;93.77;100150.50;10469242;28;20214;-84
2021/12/24 14:00:23;;;;;;;64.00;44.57;;;;;;;9.97;93.79;100151.38;10492425;28;20218;-84
2021/12/24 14:05:28;;;;;;;67.07;46.37;;;;;;;10.06;93.13;100164.81;10489944;28;20301;-84
2021/12/24 14:10:32;;;;;;;63.63;44.00;;;;;;;10.41;93.61;100219.00;10489967;28;20215;-83
2021/12/24 14:15:47;;;;;;;59.37;42.70;;;;;;;10.45;93.02;100241.81;10490094;28;20298;-85
2021/12/24 14:21:45;;;;;;;55.93;41.17;;;;;;;9.90;93.08;100143.00;10502951;28;20638;-89
2021/12/24 14:26:50;;;;;;;53.57;40.27;;;;;;;10.41;93.02;100224.34;2463680;22;20269;-89
2021/12/24 14:31:55;;;;;;;53.40;40.47;;;;;;;10.37;92.09;100234.41;10559907;27;20293;-90
2021/12/24 14:36:59;;;;;;;50.10;38.27;;;;;;;9.57;92.85;100086.06;10573552;28;20305;-89
2021/12/24 14:42:18;;;;;;;50.50;38.73;;;;;;;10.14;92.62;100189.03;10568089;28;20226;-89
2021/12/24 14:47:29;;;;;;;51.27;38.77;;;;;;;10.41;92.63;100227.84;10565288;27;20219;-90
2021/12/24 14:52:33;;;;;;;47.63;36.73;;;;;;;9.72;92.95;100148.84;10568313;28;20834;-89
2021/12/24 14:57:35;;;;;;;52.23;39.37;;;;;;;10.33;92.48;100239.16;10566633;28;20206;-90
2021/12/24 15:02:40;;;;;;;44.57;35.60;;;;;;;10.01;92.34;100191.00;10567483;28;20240;-90
2021/12/24 15:07:43;;;;;;;52.80;39.80;;;;;;;10.38;92.49;100265.50;10568678;28;20225;-90
2021/12/24 15:12:50;;;;;;;51.57;38.80;;;;;;;10.20;92.16;100229.56;10562951;28;20673;-89
2021/12/24 15:17:51;;;;;;;54.03;41.50;;;;;;;10.30;92.05;100242.09;10558018;27;20222;-89
2021/12/24 15:22:56;;;;;;;49.00;38.43;;;;;;;10.02;92.09;100206.06;10565357;28;20222;-90
2021/12/24 15:28:01;;;;;;;46.63;36.90;;;;;;;9.64;91.91;100143.25;10565014;28;20225;-89
2021/12/24 15:33:03;;;;;;;44.23;35.77;;;;;;;10.30;91.90;100282.13;10558160;28;20320;-89
2021/12/24 15:38:07;;;;;;;44.67;36.00;;;;;;;10.04;91.28;100243.25;10567073;27;20206;-89
2021/12/24 15:43:10;;;;;;;42.87;35.13;;;;;;;9.70;91.15;100187.25;10568394;27;20298;-89
2021/12/24 15:48:12;;;;;;;39.17;33.20;;;;;;;9.42;91.55;100151.22;10568264;28;20250;-89
2021/12/24 15:53:15;;;;;;;1999.90;999.90;;;;;;;9.75;91.70;100203.75;10575310;27;20460;-89
2021/12/24 15:58:17;;;;;;;85.70;54.00;;;;;;;10.23;91.76;100285.38;10554694;28;20659;-90
2021/12/24 16:03:21;;;;;;;59.43;42.90;;;;;;;10.21;91.85;100281.94;10554414;28;20225;-90
2021/12/24 16:08:24;;;;;;;50.37;38.57;;;;;;;9.07;91.98;100123.69;10547533;28;20213;-91
2021/12/24 16:13:26;;;;;;;41.73;34.77;;;;;;;9.84;92.35;100236.84;10528346;28;20241;-90
2021/12/24 16:18:28;;;;;;;39.03;34.10;;;;;;;9.70;92.46;100206.78;10546074;28;20296;-90
2021/12/24 16:23:31;;;;;;;34.57;30.83;;;;;;;10.16;92.51;100278.81;10547791;28;20236;-91
2021/12/24 16:28:33;;;;;;;37.27;33.20;;;;;;;9.74;92.87;100216.22;10543979;28;20236;-90
2021/12/24 16:33:35;;;;;;;31.70;28.70;;;;;;;9.79;92.38;100233.69;10547281;27;20255;-91
2021/12/24 16:38:38;;;;;;;31.63;28.67;;;;;;;9.97;93.03;100255.41;10545902;28;20247;-91
2021/12/24 16:43:40;;;;;;;28.23;25.87;;;;;;;9.87;92.71;100260.59;10547420;28;20229;-92
2021/12/24 16:48:42;;;;;;;28.83;26.27;;;;;;;10.14;93.72;100302.94;10543073;28;20209;-91
2021/12/24 16:53:55;;;;;;;70.67;48.43;;;;;;;8.55;93.31;100055.78;10553516;28;20218;-91
2021/12/24 16:58:56;;;;;;;61.77;44.97;;;;;;;9.86;93.40;100289.09;10561039;28;20214;-92
2021/12/24 17:03:58;;;;;;;68.53;47.70;;;;;;;8.71;93.63;100080.28;10545454;28;20221;-91
2021/12/24 17:09:01;;;;;;;63.10;44.40;;;;;;;8.68;92.93;100071.69;10546713;28;20255;-91
2021/12/24 17:14:03;;;;;;;63.33;45.17;;;;;;;10.07;93.52;100315.06;10548140;28;22071;-91
2021/12/24 17:19:07;;;;;;;60.83;43.87;;;;;;;10.03;93.46;100313.63;10544829;28;20210;-92
2021/12/24 17:24:10;;;;;;;55.80;41.27;;;;;;;9.67;92.77;100251.50;10539190;28;21128;-91
2021/12/24 17:29:12;;;;;;;54.73;40.33;;;;;;;9.86;92.76;100299.75;10549261;28;20260;-91
2021/12/24 17:34:14;;;;;;;53.93;40.47;;;;;;;9.51;92.21;100250.03;10546573;27;20244;-91
2021/12/24 17:39:18;;;;;;;51.97;39.57;;;;;;;9.35;93.00;100222.84;10547990;28;20861;-91
2021/12/24 17:44:19;;;;;;;53.37;40.77;;;;;;;9.27;92.35;100212.78;10542308;28;20874;-91
2021/12/24 17:49:21;;;;;;;46.13;37.07;;;;;;;9.84;92.97;100303.53;10536561;28;20775;-91
2021/12/24 17:54:24;;;;;;;47.57;38.30;;;;;;;8.70;92.86;100107.03;10546684;28;20660;-91
2021/12/24 17:59:26;;;;;;;49.87;39.10;;;;;;;9.61;92.57;100259.97;10552663;28;20299;-91
2021/12/24 18:04:30;;;;;;;44.50;36.13;;;;;;;9.77;92.09;100288.97;10558086;28;20595;-89
2021/12/24 18:09:34;;;;;;;45.90;36.53;;;;;;;9.21;92.09;100212.38;10551738;27;20233;-89
2021/12/24 18:14:38;;;;;;;38.40;32.87;;;;;;;9.73;92.55;100302.53;10555188;28;20225;-89
2021/12/24 18:19:40;;;;;;;39.13;33.23;;;;;;;9.22;92.67;100217.59;10559916;27;20245;-90
2021/12/24 18:24:47;;;;;;;37.40;32.37;;;;;;;9.68;91.91;100299.38;10560632;27;20239;-92
2021/12/24 18:29:49;;;;;;;36.00;31.87;;;;;;;9.12;92.32;100217.44;10551586;28;20280;-92
2021/12/24 18:34:51;;;;;;;35.43;31.63;;;;;;;9.63;91.81;100298.03;10548620;28;21037;-92
2021/12/24 18:39:55;;;;;;;35.73;31.87;;;;;;;9.58;91.94;100308.19;10548073;28;20217;-92
2021/12/24 18:44:57;;;;;;;37.57;33.23;;;;;;;9.13;91.72;100247.59;10548495;27;20623;-92
2021/12/24 18:49:59;;;;;;;35.03;31.27;;;;;;;9.49;91.81;100317.72;10550747;28;20669;-92
2021/12/24 18:55:02;;;;;;;34.93;31.13;;;;;;;8.95;92.21;100249.84;10549597;28;21620;-92
2021/12/24 19:00:05;;;;;;;35.47;31.53;;;;;;;9.29;91.58;100316.59;10555201;27;20222;-92
2021/12/24 19:05:08;;;;;;;35.80;31.90;;;;;;;9.38;91.36;100333.69;10572235;27;20234;-91
2021/12/24 19:10:12;;;;;;;39.63;33.90;;;;;;;7.40;92.30;100034.06;10557323;27;20216;-92
2021/12/24 19:15:14;;;;;;;37.13;32.60;;;;;;;9.24;91.50;100334.72;10550265;28;20220;-91
2021/12/24 19:20:18;;;;;;;38.33;33.80;;;;;;;8.72;91.39;100272.81;10549002;28;20224;-92
2021/12/24 19:25:23;;;;;;;35.10;31.43;;;;;;;8.98;91.37;100315.34;10550577;28;20527;-92
2021/12/24 19:30:26;;;;;;;34.47;30.97;;;;;;;8.89;92.09;100309.72;10546555;28;20230;-92
2021/12/24 19:35:28;;;;;;;33.13;29.80;;;;;;;8.69;92.20;100281.91;10543261;27;20653;-92
2021/12/24 19:40:32;;;;;;;34.00;30.63;;;;;;;9.02;92.18;100348.78;10550695;28;20214;-92
2021/12/24 19:45:36;;;;;;;31.97;28.97;;;;;;;8.47;91.67;100269.28;10542066;27;20232;-91
2021/12/24 19:50:38;;;;;;;33.50;30.20;;;;;;;8.96;92.47;100347.41;10545573;27;20216;-92
2021/12/24 19:55:41;;;;;;;31.27;28.27;;;;;;;8.76;91.60;100328.41;10543487;27;20239;-91
2021/12/24 20:00:44;;;;;;;34.17;30.77;;;;;;;8.76;91.77;100360.38;10540174;27;20222;-91
2021/12/24 20:05:45;;;;;;;34.00;30.60;;;;;;;8.72;92.14;100355.34;10542791;27;20223;-91
2021/12/24 20:10:50;;;;;;;33.33;30.10;;;;;;;8.72;91.63;100345.56;10548050;28;20198;-91
2021/12/24 20:15:52;;;;;;;32.63;29.47;;;;;;;8.65;92.31;100336.31;10541328;27;20578;-91
2021/12/24 20:20:54;;;;;;;33.03;29.93;;;;;;;8.73;91.53;100355.25;10544921;27;20242;-91
2021/12/24 20:25:57;;;;;;;33.10;29.97;;;;;;;8.72;92.16;100350.03;10547863;27;20614;-91
2021/12/24 20:30:59;;;;;;;32.57;29.50;;;;;;;8.48;91.22;100334.88;10540609;27;20367;-91
2021/12/24 20:36:01;;;;;;;31.00;28.17;;;;;;;7.75;91.50;100230.00;10546305;27;20498;-91
2021/12/24 20:41:04;;;;;;;29.90;27.20;;;;;;;7.54;91.57;100195.16;10545174;28;20220;-91
2021/12/24 20:46:07;;;;;;;31.23;28.30;;;;;;;8.30;91.58;100323.69;10540403;28;20973;-91
2021/12/24 20:51:10;;;;;;;31.47;28.57;;;;;;;7.50;91.81;100200.81;10543863;28;20213;-91
2021/12/24 20:56:14;;;;;;;33.90;30.73;;;;;;;8.28;90.79;100333.56;10541701;28;20256;-91
2021/12/24 21:01:16;;;;;;;32.73;29.67;;;;;;;7.78;91.79;100242.25;10538523;27;20226;-91
2021/12/24 21:06:18;;;;;;;33.40;30.23;;;;;;;8.39;91.18;100354.97;10539998;28;20232;-91
2021/12/24 21:11:21;;;;;;;34.47;31.20;;;;;;;8.38;91.94;100357.72;10541406;28;20221;-92
2021/12/24 21:16:23;;;;;;;34.83;31.23;;;;;;;8.08;92.03;100312.84;10543663;28;20211;-91
2021/12/24 21:21:25;;;;;;;32.87;29.73;;;;;;;8.15;91.52;100330.91;10542360;28;20214;-91
2021/12/24 21:26:30;;;;;;;32.87;29.80;;;;;;;8.36;91.26;100359.66;10543536;28;20264;-92
2021/12/24 21:31:33;;;;;;;31.77;28.93;;;;;;;8.08;91.78;100319.03;10549998;27;20237;-92
2021/12/24 21:36:35;;;;;;;31.47;28.63;;;;;;;7.93;91.91;100297.00;10551633;27;20221;-92
2021/12/24 21:41:38;;;;;;;31.03;28.20;;;;;;;7.81;91.15;100287.22;10549997;27;20205;-92
2021/12/24 21:46:41;;;;;;;27.50;25.03;;;;;;;8.27;92.25;100377.13;10550377;27;20275;-92
2021/12/24 21:51:43;;;;;;;28.83;26.17;;;;;;;8.26;92.11;100361.25;10550610;27;20233;-92
2021/12/24 21:56:46;;;;;;;31.13;28.20;;;;;;;7.96;92.09;100318.06;10554069;27;20214;-92
2021/12/24 22:01:49;;;;;;;24.60;22.60;;;;;;;8.18;92.62;100359.13;10554867;27;20221;-92
2021/12/24 22:12:17;;;;;;;20.67;18.93;;;;;;;6.87;91.88;100152.81;10542010;28;20213;-92
2021/12/24 22:17:21;;;;;;;11.87;10.90;;;;;;;6.79;92.69;100126.78;10515556;22;20569;-82
2021/12/24 22:22:30;;;;;;;10.17;9.27;;;;;;;7.89;92.50;100313.28;10458126;28;20223;-83
2021/12/24 22:27:37;;;;;;;6.37;5.87;;;;;;;6.61;92.09;100130.69;10459178;28;20278;-83
2021/12/24 22:32:39;;;;;;;9.37;8.57;;;;;;;7.72;92.34;100301.13;10461670;28;20298;-83
2021/12/24 22:37:41;;;;;;;7.07;6.43;;;;;;;7.73;92.41;100313.50;10457598;28;20243;-82
2021/12/24 22:42:44;;;;;;;9.00;8.20;;;;;;;8.12;91.96;100378.19;10463067;28;20354;-83
2021/12/24 22:47:47;;;;;;;9.90;8.97;;;;;;;7.86;92.81;100342.75;10461977;28;22139;-84
2021/12/24 22:52:49;;;;;;;12.43;11.40;;;;;;;7.20;91.73;100237.31;10457499;28;20211;-83
2021/12/24 22:57:55;;;;;;;9.37;8.67;;;;;;;8.05;93.09;100377.75;10463798;28;20230;-83
2021/12/24 23:02:58;;;;;;;8.83;8.10;;;;;;;7.66;92.46;100321.00;10459839;28;20242;-82
2021/12/24 23:07:59;;;;;;;3.97;3.63;;;;;;;7.69;92.13;100333.25;10449288;28;20239;-83
2021/12/24 23:13:03;;;;;;;5.47;3.77;;;;;;;7.93;92.09;100359.97;10463504;28;20219;-83
2021/12/24 23:18:07;;;;;;;2.10;1.63;;;;;;;7.76;92.40;100339.84;10471542;28;20280;-84
2021/12/24 23:23:09;;;;;;;2.40;1.87;;;;;;;6.84;92.70;100174.28;10467424;28;20234;-83
2021/12/24 23:28:12;;;;;;;3.77;2.87;;;;;;;7.97;92.71;100372.13;10469771;28;20231;-82
2021/12/24 23:33:14;;;;;;;3.17;2.43;;;;;;;7.66;92.61;100336.13;10465182;28;20235;-83
2021/12/24 23:38:16;;;;;;;2.50;2.10;;;;;;;7.95;92.20;100360.75;10468179;28;20208;-83
2021/12/24 23:43:24;;;;;;;1.70;1.47;;;;;;;7.94;92.19;100365.19;10465437;28;20203;-83
2021/12/24 23:48:28;;;;;;;4.00;2.90;;;;;;;7.91;92.91;100367.19;10473534;28;20238;-83
2021/12/24 23:53:31;;;;;;;2.40;1.87;;;;;;;7.05;92.30;100225.06;10464543;28;20219;-83